Time;durP1;ratioP1;P1;durP2;ratioP2;P2;SDS_P1;SDS_P2;PMS_P1;PMS_P2;Temp;Humidity;BMP_temperature;BMP_pressure;BME280_temperature;BME280_humidity;BME280_pressure;Samples;Min_cycle;Max_cycle;Signal;HPM_P1;HPM_P2
2023/05/03 00:00:26;;;;;;;3.13;1.85;;;;;;;12.91;100.00;151243.25;4979192;28;20507;-90
2023/05/03 00:02:52;;;;;;;2.83;1.80;;;;;;;13.00;100.00;151265.75;4979852;28;20070;-87
2023/05/03 00:05:21;;;;;;;2.42;1.90;;;;;;;12.89;100.00;151238.25;4980351;28;20031;-86
2023/05/03 00:07:49;;;;;;;4.57;2.25;;;;;;;12.88;100.00;151237.00;4978221;28;20452;-89
2023/05/03 00:10:15;;;;;;;3.08;2.00;;;;;;;12.83;100.00;151224.44;4978156;28;20072;-91
2023/05/03 00:12:42;;;;;;;2.03;1.70;;;;;;;12.86;100.00;151231.97;4976523;28;20395;-88
2023/05/03 00:15:09;;;;;;;2.30;1.90;;;;;;;12.91;100.00;151244.50;4977668;28;20035;-88
2023/05/03 00:17:36;;;;;;;2.55;2.00;;;;;;;12.91;100.00;151244.50;4976923;28;20060;-89
2023/05/03 00:20:03;;;;;;;4.95;2.15;;;;;;;12.81;100.00;151218.22;4978481;28;20034;-88
2023/05/03 00:22:29;;;;;;;3.20;2.03;;;;;;;12.79;100.00;151214.44;4993080;28;20429;-88
2023/05/03 00:24:55;;;;;;;7.07;2.10;;;;;;;12.77;100.00;151209.44;4978315;28;20038;-88
2023/05/03 00:27:21;;;;;;;3.80;1.90;;;;;;;12.90;100.00;151242.00;4979034;28;20110;-88
2023/05/03 00:29:50;;;;;;;2.42;2.00;;;;;;;12.88;100.00;151237.00;4988836;28;20046;-90
2023/05/03 00:32:15;;;;;;;2.40;2.00;;;;;;;12.80;100.00;151216.94;4998440;28;20034;-90
2023/05/03 00:34:41;;;;;;;3.15;1.80;;;;;;;12.86;100.00;151231.97;4999127;28;20023;-88
2023/05/03 00:37:07;;;;;;;1.88;1.75;;;;;;;12.79;100.00;151214.44;4995299;28;20051;-86
2023/05/03 00:39:35;;;;;;;3.30;1.88;;;;;;;12.77;100.00;151209.44;4991785;28;20050;-88
2023/05/03 00:42:03;;;;;;;2.17;1.77;;;;;;;12.82;100.00;151222.00;4980063;28;20484;-87
2023/05/03 00:44:32;;;;;;;3.58;1.98;;;;;;;12.80;100.00;151215.69;4976992;28;20030;-90
2023/05/03 00:46:57;;;;;;;2.03;1.83;;;;;;;12.82;100.00;151222.00;4977333;28;20043;-89
2023/05/03 00:49:24;;;;;;;2.97;1.90;;;;;;;12.79;100.00;151214.44;4992523;28;20532;-88
2023/05/03 00:51:53;;;;;;;2.90;1.90;;;;;;;12.82;100.00;151222.00;4977284;28;20038;-88
2023/05/03 00:54:20;;;;;;;2.88;2.25;;;;;;;12.84;100.00;151226.97;4975743;28;20062;-90
2023/05/03 00:56:45;;;;;;;3.72;2.10;;;;;;;12.95;100.00;151253.28;4977346;28;20098;-90
2023/05/03 00:59:11;;;;;;;2.72;1.77;;;;;;;12.99;100.00;151262.03;4977588;28;20066;-87
2023/05/03 01:01:37;;;;;;;3.28;2.10;;;;;;;12.89;100.00;151239.47;4977233;28;20046;-88
2023/05/03 01:04:06;;;;;;;4.10;2.03;;;;;;;12.86;100.00;151231.97;4976961;28;20204;-87
2023/05/03 01:06:43;;;;;;;3.95;1.80;;;;;;;12.87;100.00;151234.47;4977297;28;20045;-86
2023/05/03 01:09:22;;;;;;;3.00;1.77;;;;;;;12.83;100.00;151223.19;4991520;28;20049;-89
2023/05/03 01:12:22;;;;;;;2.38;1.60;;;;;;;12.89;100.00;151239.47;4975822;28;20559;-88
2023/05/03 01:14:50;;;;;;;3.00;1.98;;;;;;;12.83;100.00;151224.44;4977476;28;20070;-88
2023/05/03 01:17:20;;;;;;;2.95;1.80;;;;;;;12.88;100.00;151237.00;4976067;28;20086;-88
2023/05/03 01:19:50;;;;;;;1.73;1.42;;;;;;;12.88;100.00;151235.75;4976709;28;20050;-88
2023/05/03 01:22:41;;;;;;;2.63;1.85;;;;;;;12.79;100.00;151214.44;4976323;28;20523;-89
2023/05/03 01:25:14;;;;;;;2.95;1.90;;;;;;;12.80;100.00;151216.94;4977210;28;20077;-90
2023/05/03 01:27:41;;;;;;;4.88;1.75;;;;;;;12.76;100.00;151206.94;4977005;28;20035;-89
2023/05/03 01:30:09;;;;;;;2.53;1.60;;;;;;;12.73;100.00;151199.41;4972727;28;20030;-89
2023/05/03 01:32:47;;;;;;;2.03;1.70;;;;;;;12.72;100.00;151196.94;4955624;28;20082;-86
2023/05/03 01:35:27;;;;;;;2.92;1.67;;;;;;;12.72;100.00;151196.94;4957509;28;20036;-88
2023/05/03 01:37:55;;;;;;;2.25;2.05;;;;;;;12.78;100.00;151211.97;4958009;28;20095;-88
2023/05/03 01:40:22;;;;;;;2.67;1.80;;;;;;;12.74;100.00;151201.94;4958254;28;20035;-88
2023/05/03 01:42:49;;;;;;;2.35;1.83;;;;;;;12.76;100.00;151206.94;4955672;29;20089;-89
2023/05/03 01:45:15;;;;;;;1.92;1.65;;;;;;;12.81;100.00;151219.47;4956904;28;20509;-89
2023/05/03 01:47:40;;;;;;;3.65;1.95;;;;;;;12.82;100.00;151220.72;4957069;28;20047;-89
2023/05/03 01:50:06;;;;;;;3.53;1.80;;;;;;;12.90;100.00;151242.00;4957356;28;20043;-90
2023/05/03 01:52:32;;;;;;;2.38;1.65;;;;;;;12.83;100.00;151223.19;4957271;28;20059;-89
2023/05/03 01:54:58;;;;;;;2.10;1.70;;;;;;;12.85;100.00;151229.50;4957091;28;20471;-89
2023/05/03 01:57:24;;;;;;;4.03;1.88;;;;;;;12.78;100.00;151211.97;4960921;28;20401;-88
2023/05/03 01:59:50;;;;;;;2.42;1.83;;;;;;;12.74;100.00;151201.94;4954327;29;20035;-86
2023/05/03 02:02:16;;;;;;;2.92;1.83;;;;;;;12.73;100.00;151199.41;4956225;29;20031;-87
2023/05/03 02:04:41;;;;;;;2.80;2.03;;;;;;;12.73;100.00;151198.16;4970643;28;20027;-89
2023/05/03 02:07:08;;;;;;;2.47;2.00;;;;;;;12.76;100.00;151206.94;4958542;28;20039;-86
2023/05/03 02:09:33;;;;;;;2.20;2.00;;;;;;;12.72;100.00;151196.94;4958459;29;20133;-88
2023/05/03 02:11:59;;;;;;;2.78;2.10;;;;;;;12.73;100.00;151198.16;4959920;28;20475;-89
2023/05/03 02:14:24;;;;;;;2.60;1.92;;;;;;;12.75;100.00;151203.19;4957847;29;20035;-89
2023/05/03 02:16:50;;;;;;;5.72;2.00;;;;;;;12.73;100.00;151198.16;4957914;29;20046;-89
2023/05/03 02:19:16;;;;;;;5.43;1.98;;;;;;;12.73;100.00;151198.16;4958596;29;20095;-87
2023/05/03 02:21:41;;;;;;;2.38;1.98;;;;;;;12.68;100.00;151186.94;4959161;28;20122;-89
2023/05/03 02:24:12;;;;;;;4.10;1.90;;;;;;;12.64;100.00;151175.66;4959319;28;20058;-90
2023/05/03 02:26:38;;;;;;;2.50;1.67;;;;;;;12.65;100.00;151179.44;4959233;28;20501;-89
2023/05/03 02:29:07;;;;;;;1.98;1.50;;;;;;;12.70;100.00;151191.91;4960086;28;20031;-89
2023/05/03 02:31:32;;;;;;;2.55;1.70;;;;;;;12.74;100.00;151201.94;4958794;28;20063;-91
2023/05/03 02:33:58;;;;;;;1.73;1.33;;;;;;;12.71;100.00;151194.44;4958947;29;20031;-89
2023/05/03 02:36:24;;;;;;;2.42;1.35;;;;;;;12.68;100.00;151185.66;4961400;29;20481;-89
2023/05/03 02:38:49;;;;;;;1.52;1.17;;;;;;;12.74;100.00;151200.69;4960584;28;20028;-90
2023/05/03 02:41:16;;;;;;;2.00;1.30;;;;;;;12.68;100.00;151186.94;4961486;28;20163;-90
2023/05/03 02:43:43;;;;;;;3.22;1.35;;;;;;;12.67;100.00;151184.41;4959118;29;20038;-90
2023/05/03 02:46:08;;;;;;;3.60;1.50;;;;;;;12.63;100.00;151173.13;4958830;28;20047;-89
2023/05/03 02:48:34;;;;;;;1.85;1.40;;;;;;;12.65;100.00;151178.16;4958024;29;20038;-90
2023/05/03 02:51:00;;;;;;;2.33;1.50;;;;;;;12.61;100.00;151169.41;4958141;29;20031;-87
2023/05/03 02:53:25;;;;;;;2.05;1.30;;;;;;;12.60;100.00;151165.63;4958429;29;20516;-89
2023/05/03 02:55:52;;;;;;;2.13;1.42;;;;;;;12.63;100.00;151174.38;4958588;28;20477;-88
2023/05/03 02:58:18;;;;;;;2.40;1.13;;;;;;;12.63;100.00;151173.13;4959144;29;20031;-89
2023/05/03 03:00:43;;;;;;;4.88;1.40;;;;;;;12.70;100.00;151191.91;4961803;29;20176;-86
2023/05/03 03:03:09;;;;;;;2.75;1.20;;;;;;;12.76;100.00;151206.94;4973213;29;20031;-85
2023/05/03 03:05:35;;;;;;;1.25;1.13;;;;;;;12.76;100.00;151205.72;4973684;29;20054;-85
2023/05/03 03:08:00;;;;;;;1.63;1.20;;;;;;;12.98;100.00;151259.53;4976637;28;20019;-85
2023/05/03 03:10:32;;;;;;;4.70;1.17;;;;;;;12.93;100.00;151248.22;4974446;28;20031;-88
2023/05/03 03:12:58;;;;;;;2.17;1.20;;;;;;;12.82;100.00;151220.72;4967078;29;20089;-83
2023/05/03 03:15:31;;;;;;;2.72;1.17;;;;;;;12.91;100.00;151244.50;4972578;28;20035;-83
2023/05/03 03:17:57;;;;;;;1.10;0.95;;;;;;;12.89;100.00;151238.25;4966572;28;20354;-84
2023/05/03 03:20:23;;;;;;;2.95;1.38;;;;;;;12.98;100.00;151260.78;4970251;28;20038;-84
2023/05/03 03:22:49;;;;;;;2.20;1.33;;;;;;;13.06;100.00;151280.78;4969075;29;20035;-83
2023/05/03 03:25:15;;;;;;;2.92;1.40;;;;;;;13.16;100.00;151304.59;4971356;28;20035;-84
2023/05/03 03:27:40;;;;;;;2.90;1.27;;;;;;;13.23;100.00;151322.16;4964622;29;20493;-84
2023/05/03 03:30:08;;;;;;;2.65;1.08;;;;;;;13.28;100.00;151334.69;4964281;28;20133;-84
2023/05/03 03:32:36;;;;;;;2.67;1.00;;;;;;;13.08;100.00;151284.56;4970985;29;20122;-84
2023/05/03 03:35:05;;;;;;;1.40;0.70;;;;;;;13.21;100.00;151318.41;4976650;28;20071;-83
2023/05/03 03:37:31;;;;;;;2.85;0.85;;;;;;;12.92;100.00;151247.03;4972443;29;20512;-86
2023/05/03 03:39:57;;;;;;;1.42;0.80;;;;;;;13.02;100.00;151270.81;4964982;29;20079;-84
2023/05/03 03:42:24;;;;;;;0.63;0.63;;;;;;;12.94;100.00;151252.00;4965022;28;20053;-84
2023/05/03 03:44:50;;;;;;;1.42;0.60;;;;;;;12.91;100.00;151244.50;4963656;28;20062;-82
2023/05/03 03:47:16;;;;;;;1.58;1.27;;;;;;;12.82;100.00;151220.72;4966451;29;20043;-87
2023/05/03 03:49:43;;;;;;;4.57;0.95;;;;;;;12.88;100.00;151237.00;4972128;28;20062;-85
2023/05/03 03:52:09;;;;;;;1.05;0.80;;;;;;;12.88;100.00;151235.75;4971875;29;20038;-87
2023/05/03 03:54:35;;;;;;;2.80;1.25;;;;;;;12.76;100.00;151205.72;4967984;29;20035;-89
2023/05/03 03:57:01;;;;;;;1.45;0.90;;;;;;;12.72;100.00;151196.94;4967157;28;20030;-88
2023/05/03 03:59:28;;;;;;;0.80;0.80;;;;;;;12.87;100.00;151234.47;4966003;29;20035;-89
2023/05/03 04:01:54;;;;;;;1.85;1.20;;;;;;;12.89;100.00;151239.47;4963018;28;20050;-87
2023/05/03 04:04:20;;;;;;;1.13;1.02;;;;;;;12.97;100.00;151258.25;4961050;28;20031;-88
2023/05/03 04:06:48;;;;;;;3.33;1.08;;;;;;;13.05;100.00;151278.31;4957983;28;20054;-86
2023/05/03 04:09:16;;;;;;;5.57;1.00;;;;;;;13.14;100.00;151299.63;4958301;28;20078;-88
2023/05/03 04:11:44;;;;;;;3.22;0.80;;;;;;;13.19;100.00;151312.16;4957816;28;20034;-88
2023/05/03 04:14:09;;;;;;;2.35;0.80;;;;;;;13.20;100.00;151314.63;4956919;29;20584;-89
2023/05/03 04:16:35;;;;;;;2.13;1.33;;;;;;;13.11;100.00;151292.13;4956563;29;20035;-87
2023/05/03 04:19:06;;;;;;;2.00;0.90;;;;;;;13.00;100.00;151264.50;4957279;28;20043;-88
2023/05/03 04:21:34;;;;;;;1.98;1.20;;;;;;;12.90;100.00;151242.00;4956461;28;20046;-87
2023/05/03 04:24:03;;;;;;;1.52;0.80;;;;;;;13.02;100.00;151269.53;4956472;29;20035;-87
2023/05/03 04:26:29;;;;;;;1.98;0.95;;;;;;;12.85;100.00;151228.22;4957368;28;20031;-89
2023/05/03 04:28:55;;;;;;;5.07;1.00;;;;;;;12.83;100.00;151224.44;4956204;28;20045;-88
2023/05/03 04:31:21;;;;;;;1.17;0.93;;;;;;;12.82;100.00;151222.00;4956397;28;20040;-87
2023/05/03 04:33:50;;;;;;;2.05;1.25;;;;;;;12.93;100.00;151248.22;4940963;28;20046;-86
2023/05/03 04:36:16;;;;;;;1.27;1.00;;;;;;;12.88;100.00;151235.75;4973226;28;20035;-86
2023/05/03 04:38:45;;;;;;;0.82;0.82;;;;;;;12.82;100.00;151220.72;4957599;29;20465;-86
2023/05/03 04:41:11;;;;;;;0.98;0.85;;;;;;;12.74;100.00;151201.94;4955353;29;20046;-87
2023/05/03 04:43:40;;;;;;;2.55;1.20;;;;;;;12.73;100.00;151199.41;4939718;28;20034;-83
2023/05/03 04:46:06;;;;;;;1.00;0.85;;;;;;;12.82;100.00;151222.00;4956787;28;20043;-84
2023/05/03 04:48:34;;;;;;;1.50;1.10;;;;;;;12.87;100.00;151234.47;4954351;29;20088;-85
2023/05/03 04:51:01;;;;;;;1.67;0.90;;;;;;;13.00;100.00;151264.50;4954529;29;20366;-84
2023/05/03 04:53:26;;;;;;;1.00;0.90;;;;;;;13.17;100.00;151307.13;4955077;29;20054;-84
2023/05/03 04:56:02;;;;;;;1.38;1.10;;;;;;;13.29;100.00;151337.22;4954726;28;20512;-84
2023/05/03 04:58:31;;;;;;;2.45;1.20;;;;;;;13.40;100.00;151366.00;4954743;29;20031;-86
2023/05/03 05:00:57;;;;;;;2.38;1.40;;;;;;;13.22;100.00;151320.94;4954713;29;20035;-86
2023/05/03 05:03:27;;;;;;;1.70;1.20;;;;;;;13.17;100.00;151307.13;4960149;29;20141;-88
2023/05/03 05:05:57;;;;;;;3.47;1.42;;;;;;;13.00;100.00;151264.50;4959602;28;20042;-84
2023/05/03 05:08:25;;;;;;;3.70;1.80;;;;;;;12.91;100.00;151244.50;4961040;28;20162;-81
2023/05/03 05:10:55;;;;;;;2.33;2.00;;;;;;;13.01;100.00;151267.03;4964984;29;20045;-83
2023/05/03 05:13:26;;;;;;;3.33;2.10;;;;;;;12.84;100.00;151226.97;4965813;28;20424;-84
2023/05/03 05:15:52;;;;;;;4.43;1.83;;;;;;;12.82;100.00;151222.00;4959616;29;20063;-85
2023/05/03 05:18:20;;;;;;;4.65;1.95;;;;;;;12.78;100.00;151211.97;4957633;29;20047;-91
2023/05/03 05:20:47;;;;;;;2.72;1.80;;;;;;;12.84;100.00;151226.97;4957083;29;20074;-88
2023/05/03 05:23:13;;;;;;;2.22;1.52;;;;;;;12.90;100.00;151242.00;4954904;29;20079;-85
2023/05/03 05:25:41;;;;;;;4.93;1.52;;;;;;;12.80;100.00;151216.94;4956367;29;20087;-86
2023/05/03 05:28:08;;;;;;;2.35;1.70;;;;;;;12.93;100.00;151249.50;4956784;28;20425;-87
2023/05/03 05:30:34;;;;;;;2.85;1.60;;;;;;;12.87;100.00;151234.47;4955589;29;20039;-86
2023/05/03 05:33:00;;;;;;;3.35;2.35;;;;;;;12.77;100.00;151209.44;4953964;29;20031;-86
2023/05/03 05:35:26;;;;;;;4.60;2.13;;;;;;;12.85;100.00;151229.50;4956069;28;20396;-87
2023/05/03 05:37:52;;;;;;;3.13;2.10;;;;;;;12.83;100.00;151224.44;4956186;28;20058;-87
2023/05/03 05:40:18;;;;;;;3.83;2.05;;;;;;;12.82;100.00;151222.00;4954613;29;20035;-85
2023/05/03 05:42:51;;;;;;;5.50;1.90;;;;;;;12.79;100.00;151214.44;4940193;29;20488;-88
2023/05/03 05:45:19;;;;;;;3.30;1.85;;;;;;;12.84;100.00;151226.97;4954313;29;20582;-84
2023/05/03 05:47:45;;;;;;;2.55;1.60;;;;;;;13.05;100.00;151277.06;4954392;29;20067;-84
2023/05/03 05:50:11;;;;;;;4.47;1.88;;;;;;;13.13;100.00;151298.38;4959706;28;20062;-85
2023/05/03 05:52:37;;;;;;;5.05;2.47;;;;;;;13.18;100.00;151309.66;4973771;28;20106;-85
2023/05/03 05:55:07;;;;;;;2.97;1.90;;;;;;;13.04;100.00;151275.78;4981184;28;20480;-85
2023/05/03 05:57:33;;;;;;;5.03;1.85;;;;;;;13.15;100.00;151303.41;4973195;28;20109;-87
2023/05/03 05:59:59;;;;;;;3.55;1.48;;;;;;;13.28;100.00;151334.69;4974361;28;20030;-85
2023/05/03 06:02:25;;;;;;;2.28;1.67;;;;;;;13.47;100.00;151382.25;4974349;28;20524;-83
2023/05/03 06:04:51;;;;;;;2.15;1.35;;;;;;;13.43;100.00;151372.25;4982036;28;20041;-85
2023/05/03 06:07:17;;;;;;;1.65;1.20;;;;;;;13.39;100.00;151362.22;4978309;28;20400;-85
2023/05/03 06:09:45;;;;;;;4.78;1.65;;;;;;;13.41;100.00;151367.25;4974269;28;20084;-85
2023/05/03 06:12:11;;;;;;;8.98;2.85;;;;;;;13.34;100.00;151349.72;4973225;28;20035;-87
2023/05/03 06:14:40;;;;;;;6.78;2.22;;;;;;;13.36;100.00;151354.69;4981177;28;20053;-91
2023/05/03 06:17:06;;;;;;;4.20;1.60;;;;;;;13.51;100.00;151392.28;4977719;28;20031;-85
2023/05/03 06:19:31;;;;;;;3.78;2.50;;;;;;;13.50;100.00;151389.78;4973317;28;20045;-86
2023/05/03 06:21:57;;;;;;;3.70;1.85;;;;;;;13.47;100.00;151382.25;4972878;28;20089;-85
2023/05/03 06:24:23;;;;;;;2.65;1.52;;;;;;;13.51;100.00;151392.28;4974665;28;20039;-85
2023/05/03 06:26:52;;;;;;;2.55;1.25;;;;;;;13.64;100.00;151424.84;4973413;28;20039;-85
2023/05/03 06:29:17;;;;;;;3.17;1.40;;;;;;;13.62;100.00;151418.59;4973174;28;20472;-87
2023/05/03 06:31:44;;;;;;;1.20;1.10;;;;;;;13.88;100.00;151485.00;4978831;28;20030;-82
2023/05/03 06:34:11;;;;;;;1.65;1.55;;;;;;;13.93;100.00;151497.50;4976947;28;20082;-82
2023/05/03 06:36:39;;;;;;;2.45;1.67;;;;;;;13.94;100.00;151498.75;4982255;28;20011;-83
2023/05/03 06:39:05;;;;;;;2.15;1.20;;;;;;;13.97;100.00;151506.28;4989592;28;20085;-88
2023/05/03 06:41:33;;;;;;;2.90;1.38;;;;;;;13.96;100.00;151505.00;4975260;28;20027;-85
2023/05/03 06:44:03;;;;;;;2.72;1.23;;;;;;;13.89;100.00;151486.19;4974691;28;20038;-84
2023/05/03 06:46:29;;;;;;;1.85;1.17;;;;;;;13.94;100.00;151500.03;4972750;28;20395;-83
2023/05/03 06:48:55;;;;;;;12.05;1.40;;;;;;;14.06;100.00;151528.81;4988971;28;20114;-85
2023/05/03 06:51:28;;;;;;;2.70;1.05;;;;;;;14.12;100.00;151543.84;4974274;28;20405;-86
2023/05/03 06:53:56;;;;;;;7.57;1.63;;;;;;;14.14;100.00;151547.63;4976155;28;20074;-84
2023/05/03 06:56:22;;;;;;;4.47;1.70;;;;;;;14.20;100.00;151562.63;4977117;28;20480;-85
2023/05/03 06:58:48;;;;;;;3.67;1.20;;;;;;;14.17;100.00;151556.38;4977507;28;20436;-86
2023/05/03 07:01:17;;;;;;;3.30;0.95;;;;;;;14.24;100.00;151573.94;4977444;28;20050;-84
2023/05/03 07:03:43;;;;;;;2.65;1.00;;;;;;;14.26;100.00;151578.94;4977544;28;20059;-88
2023/05/03 07:06:09;;;;;;;1.05;0.80;;;;;;;14.32;100.00;151592.69;4977144;28;20544;-84
2023/05/03 07:08:35;;;;;;;4.97;0.82;;;;;;;14.32;100.00;151592.69;4977225;28;20062;-84
2023/05/03 07:11:00;;;;;;;3.65;0.90;;;;;;;14.35;100.00;151601.50;4975582;28;20066;-83
2023/05/03 07:13:26;;;;;;;13.82;1.15;;;;;;;14.43;100.00;151621.59;4976890;28;20104;-83
2023/05/03 07:15:51;;;;;;;2.08;1.17;;;;;;;14.51;100.00;151640.41;4977168;28;20131;-85
2023/05/03 07:18:18;;;;;;;1.65;0.90;;;;;;;14.55;100.00;151650.38;4991572;28;20043;-83
2023/05/03 07:20:45;;;;;;;1.75;0.68;;;;;;;14.57;100.00;151654.16;4978065;28;20439;-83
2023/05/03 07:23:10;;;;;;;1.13;0.80;;;;;;;14.70;100.00;151688.00;4977795;28;20042;-84
2023/05/03 07:25:38;;;;;;;1.10;0.90;;;;;;;14.58;100.00;151657.94;4976857;28;20034;-82
2023/05/03 07:28:03;;;;;;;0.95;0.60;;;;;;;14.58;100.00;151657.94;4976494;28;20030;-82
2023/05/03 07:30:32;;;;;;;5.10;0.85;;;;;;;14.68;100.00;151682.97;4977162;28;20047;-85
2023/05/03 07:32:57;;;;;;;2.78;0.60;;;;;;;14.70;100.00;151688.00;4977797;28;20027;-83
2023/05/03 07:35:25;;;;;;;4.32;1.05;;;;;;;14.76;100.00;151703.03;4977841;28;20495;-83
2023/05/03 07:37:53;;;;;;;3.28;1.00;;;;;;;14.71;100.00;151689.28;4976888;28;20114;-82
2023/05/03 07:40:19;;;;;;;4.85;0.70;;;;;;;14.73;100.00;151695.53;4979889;28;20027;-81
2023/05/03 07:42:46;;;;;;;3.95;0.70;;;;;;;14.85;100.00;151725.59;4977752;28;20043;-82
2023/05/03 07:45:12;;;;;;;0.93;0.57;;;;;;;14.94;100.00;151748.19;4975135;28;20039;-83
2023/05/03 07:47:38;;;;;;;1.15;0.80;;;;;;;15.00;100.00;151763.22;4975501;28;20115;-83
2023/05/03 07:50:06;;;;;;;2.22;0.55;;;;;;;15.03;100.00;151769.50;4974823;28;20086;-82
2023/05/03 07:52:37;;;;;;;2.28;0.95;;;;;;;15.22;100.00;151815.84;4975078;28;20039;-83
2023/05/03 07:55:05;;;;;;;1.33;0.82;;;;;;;15.32;100.00;151842.19;4975626;28;20426;-82
2023/05/03 07:57:31;;;;;;;3.00;0.77;;;;;;;15.28;100.00;151830.94;4973707;28;20033;-81
2023/05/03 07:59:57;;;;;;;3.80;0.80;;;;;;;15.47;100.00;151879.84;4974767;28;20035;-82
2023/05/03 08:02:23;;;;;;;1.20;0.70;;;;;;;15.56;100.00;151901.19;4976153;28;20038;-83
2023/05/03 08:04:48;;;;;;;1.05;0.60;;;;;;;15.58;100.00;151906.19;4976133;28;20049;-83
2023/05/03 08:07:14;;;;;;;5.72;3.55;;;;;;;15.65;100.00;151923.75;4975834;28;20039;-82
2023/05/03 08:09:40;;;;;;;1.58;0.57;;;;;;;15.47;100.00;151878.59;4976419;28;20065;-82
2023/05/03 08:12:06;;;;;;;0.85;0.60;;;;;;;15.64;100.00;151920.03;4976526;28;20046;-81
2023/05/03 08:14:32;;;;;;;1.25;0.40;;;;;;;15.57;100.00;151903.72;4976039;28;20035;-84
2023/05/03 08:16:58;;;;;;;0.88;0.60;;;;;;;15.75;100.00;151947.56;4975990;28;20503;-81
2023/05/03 08:19:24;;;;;;;14.60;0.73;;;;;;;16.19;100.00;152058.00;4975888;28;20045;-81
2023/05/03 08:21:51;;;;;;;2.85;0.60;;;;;;;16.22;100.00;152065.53;4975651;28;20475;-81
2023/05/03 08:24:16;;;;;;;0.55;0.40;;;;;;;16.61;100.00;152160.91;4975679;28;20058;-81
2023/05/03 08:26:43;;;;;;;0.45;0.40;;;;;;;16.48;100.00;152130.75;4976110;28;20066;-82
2023/05/03 08:29:09;;;;;;;2.47;0.77;;;;;;;16.73;100.00;152191.06;4975625;28;20051;-82
2023/05/03 08:31:34;;;;;;;0.57;0.50;;;;;;;16.66;100.00;152174.75;4975513;28;20022;-81
2023/05/03 08:34:00;;;;;;;1.40;0.40;;;;;;;16.63;100.00;152167.22;4975305;28;20503;-81
2023/05/03 08:36:26;;;;;;;2.25;0.68;;;;;;;16.68;100.00;152179.75;4975218;28;20162;-82
2023/05/03 08:38:51;;;;;;;0.50;0.40;;;;;;;16.67;100.00;152176.00;4975504;28;20075;-81
2023/05/03 08:41:30;;;;;;;1.30;0.60;;;;;;;16.51;100.00;152137.03;4975830;28;20031;-81
2023/05/03 08:43:58;;;;;;;1.50;0.55;;;;;;;16.58;100.00;152154.66;4992155;28;20049;-81
2023/05/03 08:46:27;;;;;;;1.70;0.57;;;;;;;16.51;100.00;152137.03;4964339;28;20418;-82
2023/05/03 08:48:53;;;;;;;0.70;0.50;;;;;;;16.44;100.00;152119.44;4960741;28;20031;-83
2023/05/03 08:51:20;;;;;;;2.15;0.43;;;;;;;16.78;100.00;152204.84;4972012;28;20046;-87
2023/05/03 08:53:46;;;;;;;2.90;0.47;;;;;;;17.29;100.00;152330.41;4972535;28;20473;-83
2023/05/03 08:56:33;;;;;;;0.40;0.40;;;;;;;17.49;100.00;152380.63;4958870;28;20045;-80
2023/05/03 08:59:06;;;;;;;0.68;0.40;;;;;;;18.09;100.00;152530.16;4967420;28;20130;-85
2023/05/03 09:01:33;;;;;;;2.90;0.65;;;;;;;18.73;100.00;152689.75;4959843;28;20039;-82
2023/05/03 09:03:58;;;;;;;1.15;0.50;;;;;;;18.72;100.00;152686.00;4970074;28;20039;-82
2023/05/03 09:06:27;;;;;;;7.30;0.52;;;;;;;18.48;100.00;152626.88;4957934;28;20138;-82
2023/05/03 09:08:54;;;;;;;1.85;0.50;;;;;;;18.14;100.00;152541.44;4971510;28;20043;-83
2023/05/03 09:11:31;;;;;;;1.00;0.60;;;;;;;18.10;100.00;152532.63;4969115;28;20452;-82
2023/05/03 09:14:12;;;;;;;1.50;0.28;;;;;;;17.91;100.00;152486.16;4967162;28;20463;-81
2023/05/03 09:16:39;;;;;;;2.40;0.40;;;;;;;18.15;100.00;152543.97;4966507;28;20035;-82
2023/05/03 09:19:15;;;;;;;0.88;0.50;;;;;;;18.11;100.00;152533.91;4974225;28;20544;-85
2023/05/03 09:21:42;;;;;;;5.45;0.50;;;;;;;17.87;100.00;152474.84;4958881;28;20031;-82
2023/05/03 09:24:20;;;;;;;1.10;0.70;;;;;;;17.93;100.00;152489.97;4966362;28;20441;-82
2023/05/03 09:26:47;;;;;;;0.70;0.70;;;;;;;17.85;100.00;152469.84;4950508;28;20117;-83
2023/05/03 09:29:39;;;;;;;0.77;0.68;;;;;;;17.92;100.00;152487.44;4966371;28;20031;-86
2023/05/03 09:32:06;;;;;;;0.30;0.30;;;;;;;17.92;100.00;152487.44;4960860;28;21801;-85
2023/05/03 09:34:32;;;;;;;0.77;0.60;;;;;;;18.06;100.00;152523.84;4964097;28;20031;-83
2023/05/03 09:36:58;;;;;;;1.00;0.70;;;;;;;17.81;100.00;152461.06;4964396;28;20023;-85
2023/05/03 09:39:24;;;;;;;0.80;0.60;;;;;;;17.78;100.00;152452.25;4968524;28;20046;-82
2023/05/03 09:41:50;;;;;;;2.30;0.93;;;;;;;17.84;100.00;152468.59;4974375;28;20361;-81
2023/05/03 09:44:16;;;;;;;3.38;0.75;;;;;;;17.78;100.00;152453.53;4974474;28;20131;-83
2023/05/03 09:47:05;;;;;;;1.10;0.63;;;;;;;18.07;100.00;152526.38;4974213;28;20041;-83
2023/05/03 09:49:35;;;;;;;1.50;0.60;;;;;;;18.44;100.00;152618.09;4973103;28;20436;-82
2023/05/03 09:52:05;;;;;;;2.38;0.60;;;;;;;18.39;100.00;152604.28;4989569;28;20069;-86
2023/05/03 09:54:30;;;;;;;0.80;0.70;;;;;;;18.43;100.00;152614.31;4975015;28;20126;-84
2023/05/03 09:56:56;;;;;;;0.68;0.60;;;;;;;18.52;100.00;152638.25;4976353;28;20059;-84
2023/05/03 09:59:25;;;;;;;3.50;0.80;;;;;;;18.61;100.00;152658.34;4975501;28;20086;-83
2023/05/03 10:01:55;;;;;;;1.58;1.05;;;;;;;19.30;100.00;152830.53;4973647;28;20043;-85
2023/05/03 10:04:25;;;;;;;1.17;0.80;;;;;;;19.11;100.00;152784.03;4974221;28;20038;-83
2023/05/03 10:06:59;;;;;;;1.77;0.82;;;;;;;19.28;100.00;152825.53;4977010;28;20093;-84
2023/05/03 10:09:39;;;;;;;1.93;0.83;;;;;;;19.40;100.00;152855.69;4980005;28;20035;-84
2023/05/03 10:12:07;;;;;;;0.60;0.30;;;;;;;19.09;100.00;152780.25;4979722;28;20345;-85
2023/05/03 10:14:37;;;;;;;0.90;0.60;;;;;;;19.06;100.00;152772.72;4980100;28;20086;-83
2023/05/03 10:17:07;;;;;;;0.80;0.70;;;;;;;19.19;100.00;152804.13;4986460;28;20049;-84
2023/05/03 10:19:42;;;;;;;1.08;0.90;;;;;;;19.09;100.00;152780.25;4980896;28;20119;-84
2023/05/03 10:22:09;;;;;;;2.03;0.70;;;;;;;19.01;100.00;152760.16;4978896;28;20090;-83
2023/05/03 10:24:37;;;;;;;4.35;0.90;;;;;;;19.09;100.00;152780.25;4977067;28;20030;-82
2023/05/03 10:27:10;;;;;;;1.83;0.70;;;;;;;18.85;100.00;152718.69;4979116;28;20129;-83
2023/05/03 10:32:24;;;;;;;0.95;0.82;;;;;;;19.02;100.00;152762.66;4978978;28;20046;-82
2023/05/03 10:35:16;;;;;;;1.30;1.00;;;;;;;19.84;100.00;152965.16;4980566;28;20475;-81
2023/05/03 10:37:42;;;;;;;1.10;0.77;;;;;;;19.91;100.00;152982.78;4981846;28;20365;-84
2023/05/03 10:40:18;;;;;;;0.77;0.60;;;;;;;20.37;100.00;153097.28;4981622;28;20505;-84
2023/05/03 10:43:03;;;;;;;0.70;0.52;;;;;;;20.39;100.00;153103.56;4971825;28;20034;-84
2023/05/03 10:45:29;;;;;;;0.57;0.57;;;;;;;21.20;100.00;153303.72;4971719;28;20035;-83
2023/05/03 10:48:21;;;;;;;1.90;0.95;;;;;;;21.06;100.00;153270.94;4970572;28;20050;-80
2023/05/03 10:50:48;;;;;;;1.58;0.57;;;;;;;21.01;100.00;153257.13;4977364;28;20053;-84
2023/05/03 10:53:35;;;;;;;0.60;0.60;;;;;;;20.83;100.00;153213.06;4980708;28;20472;-84
2023/05/03 10:56:08;;;;;;;3.97;1.00;;;;;;;20.93;100.00;153236.97;4996792;28;20042;-85
2023/05/03 10:58:47;;;;;;;2.58;0.77;;;;;;;21.27;100.00;153321.34;4983749;28;20035;-86
2023/05/03 11:01:17;;;;;;;2.88;0.68;;;;;;;21.34;100.00;153340.25;4980051;28;20041;-81
2023/05/03 11:03:46;;;;;;;0.77;0.50;;;;;;;21.62;100.00;153410.72;4974012;28;20492;-84
2023/05/03 11:06:33;;;;;;;0.75;0.60;;;;;;;21.21;100.00;153307.53;4977889;28;20030;-80
2023/05/03 11:09:00;;;;;;;1.13;0.80;;;;;;;22.24;95.46;153563.19;4963451;28;20043;-83
2023/05/03 11:11:25;;;;;;;2.90;0.70;;;;;;;21.52;97.28;153384.28;4970657;28;20081;-85
2023/05/03 11:13:51;;;;;;;2.53;0.90;;;;;;;21.25;96.38;153316.28;4967362;28;20110;-84
2023/05/03 11:16:17;;;;;;;0.80;0.73;;;;;;;21.69;97.00;153427.09;4959154;28;20031;-83
2023/05/03 11:18:44;;;;;;;0.60;0.50;;;;;;;21.61;94.18;153408.19;4960771;28;20117;-83
2023/05/03 11:21:10;;;;;;;0.68;0.40;;;;;;;22.13;91.16;153538.00;4962524;28;20504;-85
2023/05/03 11:23:37;;;;;;;3.40;0.40;;;;;;;22.02;89.48;153510.25;4963723;28;20030;-86